Time;durP1;ratioP1;P1;durP2;ratioP2;P2;SDS_P1;SDS_P2;PMS_P1;PMS_P2;Temp;Humidity;BMP_temperature;BMP_pressure;BME280_temperature;BME280_humidity;BME280_pressure;Samples;Min_cycle;Max_cycle;Signal;HPM_P1;HPM_P2
2024/04/04 00:01:23;;;;;;;3.78;1.40;;;;;;;;;;4924339;28;20020;-77
2024/04/04 00:04:08;;;;;;;4.70;1.80;;;;;;;;;;4932764;28;20027;-77
2024/04/04 00:06:54;;;;;;;3.78;1.95;;;;;;;;;;4935948;29;20055;-77
2024/04/04 00:09:39;;;;;;;7.43;1.73;;;;;;;;;;4988363;28;20368;-77
2024/04/04 00:12:25;;;;;;;3.95;1.58;;;;;;;;;;4932650;28;20491;-76
2024/04/04 00:15:10;;;;;;;5.38;1.40;;;;;;;;;;4929078;29;20059;-77
2024/04/04 00:17:55;;;;;;;3.60;2.30;;;;;;;;;;4982782;28;20032;-78
2024/04/04 00:20:41;;;;;;;2.67;1.30;;;;;;;;;;4929511;28;20063;-77
2024/04/04 00:23:26;;;;;;;5.93;2.08;;;;;;;;;;4926095;28;20059;-75
2024/04/04 00:26:11;;;;;;;4.20;1.35;;;;;;;;;;4922773;29;20043;-76
2024/04/04 00:28:56;;;;;;;3.40;1.20;;;;;;;;;;4933539;29;20036;-77
2024/04/04 00:31:42;;;;;;;5.10;1.30;;;;;;;;;;4921753;29;20023;-76
2024/04/04 00:34:27;;;;;;;5.60;1.27;;;;;;;;;;4919567;28;20020;-75
2024/04/04 00:37:12;;;;;;;5.65;1.20;;;;;;;;;;4935514;29;20036;-77
2024/04/04 00:39:57;;;;;;;5.53;1.40;;;;;;;;;;4922589;28;20090;-76
2024/04/04 00:42:42;;;;;;;6.03;1.60;;;;;;;;;;4920491;29;20118;-76
2024/04/04 00:45:28;;;;;;;1.80;0.98;;;;;;;;;;4934072;28;20032;-75
2024/04/04 00:48:14;;;;;;;2.33;1.55;;;;;;;;;;4917884;29;20405;-76
2024/04/04 00:50:59;;;;;;;3.85;1.20;;;;;;;;;;4990877;28;20039;-77
2024/04/04 00:53:45;;;;;;;4.50;1.10;;;;;;;;;;4918344;29;20126;-76
2024/04/04 00:56:30;;;;;;;5.15;1.13;;;;;;;;;;4928635;29;20027;-76
2024/04/04 00:59:15;;;;;;;4.15;1.20;;;;;;;;;;4914452;29;20035;-78
2024/04/04 01:02:00;;;;;;;3.08;1.30;;;;;;;;;;4922381;29;20085;-78
2024/04/04 01:04:46;;;;;;;3.85;1.50;;;;;;;;;;4929176;29;20082;-76
2024/04/04 01:07:35;;;;;;;4.28;1.17;;;;;;;;;;4913819;29;20036;-76
2024/04/04 01:10:21;;;;;;;2.55;1.38;;;;;;;;;;4921082;29;20590;-77
2024/04/04 01:13:06;;;;;;;2.67;1.15;;;;;;;;;;4927727;29;20123;-74
2024/04/04 01:15:51;;;;;;;4.95;1.73;;;;;;;;;;4913930;29;20040;-74
2024/04/04 01:18:36;;;;;;;5.28;1.17;;;;;;;;;;4920315;28;20020;-75
2024/04/04 01:21:21;;;;;;;4.70;1.67;;;;;;;;;;4934422;29;20065;-76
2024/04/04 01:24:07;;;;;;;4.78;1.40;;;;;;;;;;4923062;29;20059;-76
2024/04/04 01:26:52;;;;;;;4.10;1.42;;;;;;;;;;4923504;29;20248;-76
2024/04/04 01:29:37;;;;;;;4.53;1.20;;;;;;;;;;4918442;29;20042;-78
2024/04/04 01:32:23;;;;;;;5.55;1.40;;;;;;;;;;4921675;29;20074;-77
2024/04/04 01:35:08;;;;;;;2.75;1.42;;;;;;;;;;4919318;28;20032;-76
2024/04/04 01:37:53;;;;;;;4.57;1.55;;;;;;;;;;4918436;28;20087;-76
2024/04/04 01:40:37;;;;;;;2.22;1.25;;;;;;;;;;4912110;29;20366;-76
2024/04/04 01:43:21;;;;;;;2.88;1.17;;;;;;;;;;4917650;29;20043;-77
2024/04/04 01:46:07;;;;;;;5.10;1.50;;;;;;;;;;4923186;28;20426;-76
2024/04/04 01:48:52;;;;;;;2.58;1.10;;;;;;;;;;4921579;28;20024;-76
2024/04/04 01:51:37;;;;;;;3.90;1.33;;;;;;;;;;4924735;29;20031;-76
2024/04/04 01:54:23;;;;;;;2.63;1.02;;;;;;;;;;4921488;28;20036;-76
2024/04/04 01:57:08;;;;;;;3.35;1.20;;;;;;;;;;4922566;28;20371;-76
2024/04/04 01:59:53;;;;;;;5.07;1.30;;;;;;;;;;4928804;29;20032;-75
2024/04/04 02:02:38;;;;;;;3.70;1.33;;;;;;;;;;4928231;29;20032;-75
2024/04/04 02:05:24;;;;;;;2.45;1.20;;;;;;;;;;4927359;29;20127;-76
2024/04/04 02:08:09;;;;;;;3.72;1.15;;;;;;;;;;4937489;28;20348;-76
2024/04/04 02:10:54;;;;;;;5.57;1.20;;;;;;;;;;4988883;28;20099;-76
2024/04/04 02:13:39;;;;;;;2.95;1.15;;;;;;;;;;4918221;28;20055;-76
2024/04/04 02:16:25;;;;;;;2.28;1.13;;;;;;;;;;4923245;29;20044;-76
2024/04/04 02:19:10;;;;;;;2.72;1.25;;;;;;;;;;4925566;29;20373;-76
2024/04/04 02:21:55;;;;;;;4.85;1.17;;;;;;;;;;4920799;28;20521;-76
2024/04/04 02:24:40;;;;;;;3.40;0.95;;;;;;;;;;4925328;29;20054;-76
2024/04/04 02:27:26;;;;;;;4.72;1.80;;;;;;;;;;4922847;29;20127;-75
2024/04/04 02:30:12;;;;;;;1.50;1.05;;;;;;;;;;4935149;28;20309;-76
2024/04/04 02:32:57;;;;;;;4.53;1.33;;;;;;;;;;4935110;29;20030;-76
2024/04/04 02:35:56;;;;;;;3.28;1.27;;;;;;;;;;4937725;29;20024;-76
2024/04/04 02:38:41;;;;;;;11.63;2.15;;;;;;;;;;4929857;29;20351;-76
2024/04/04 02:41:26;;;;;;;3.97;1.20;;;;;;;;;;4913697;29;20091;-76
2024/04/04 02:44:12;;;;;;;2.47;1.50;;;;;;;;;;4935362;29;20082;-77
2024/04/04 02:46:57;;;;;;;2.47;0.90;;;;;;;;;;4925658;29;20031;-77
2024/04/04 02:49:42;;;;;;;3.72;0.90;;;;;;;;;;4934243;28;20027;-74
2024/04/04 02:52:28;;;;;;;2.13;1.05;;;;;;;;;;4910937;28;20124;-76
2024/04/04 02:55:13;;;;;;;4.10;1.27;;;;;;;;;;4920011;29;20111;-75
2024/04/04 02:57:59;;;;;;;2.50;0.90;;;;;;;;;;4940459;28;20024;-76
2024/04/04 03:00:44;;;;;;;2.15;1.20;;;;;;;;;;4933453;29;20785;-74
2024/04/04 03:03:29;;;;;;;3.80;1.27;;;;;;;;;;4934322;29;20055;-77
2024/04/04 03:06:18;;;;;;;2.97;1.55;;;;;;;;;;4917850;28;20036;-76
2024/04/04 03:09:03;;;;;;;1.88;1.27;;;;;;;;;;4917984;29;20474;-76
2024/04/04 03:11:51;;;;;;;2.72;1.13;;;;;;;;;;4914475;29;20470;-76
2024/04/04 03:14:36;;;;;;;4.00;1.02;;;;;;;;;;4929617;28;20513;-76
2024/04/04 03:17:21;;;;;;;3.53;1.52;;;;;;;;;;4922139;29;20079;-76
2024/04/04 03:20:07;;;;;;;4.90;1.67;;;;;;;;;;4925433;29;20027;-76
2024/04/04 03:22:52;;;;;;;3.58;1.23;;;;;;;;;;4929322;29;20051;-76
2024/04/04 03:25:37;;;;;;;4.80;1.20;;;;;;;;;;4926184;28;20070;-75
2024/04/04 03:28:23;;;;;;;5.20;1.35;;;;;;;;;;4940324;29;20095;-77
2024/04/04 03:31:08;;;;;;;9.80;1.20;;;;;;;;;;4922025;29;20035;-76
2024/04/04 03:33:53;;;;;;;4.15;1.30;;;;;;;;;;4991900;28;20028;-77
2024/04/04 03:36:41;;;;;;;2.78;1.38;;;;;;;;;;4925015;28;20036;-76
2024/04/04 03:39:26;;;;;;;5.63;1.30;;;;;;;;;;4925909;29;20039;-76
2024/04/04 03:42:11;;;;;;;4.05;1.10;;;;;;;;;;4938566;28;20066;-77
2024/04/04 03:44:56;;;;;;;4.15;1.10;;;;;;;;;;4937521;29;20034;-76
2024/04/04 03:47:41;;;;;;;3.58;0.90;;;;;;;;;;4926238;28;20024;-75
2024/04/04 03:50:27;;;;;;;3.38;1.40;;;;;;;;;;4926106;29;20024;-76
2024/04/04 03:53:12;;;;;;;5.10;1.00;;;;;;;;;;4975050;28;20028;-76
2024/04/04 03:55:57;;;;;;;2.38;1.00;;;;;;;;;;4923478;29;20090;-75
2024/04/04 03:58:43;;;;;;;3.03;1.13;;;;;;;;;;4932479;28;20074;-76
2024/04/04 04:01:28;;;;;;;4.95;1.27;;;;;;;;;;4923263;28;20028;-77
2024/04/04 04:04:13;;;;;;;2.83;1.08;;;;;;;;;;4921223;29;20039;-75
2024/04/04 04:06:58;;;;;;;2.65;1.08;;;;;;;;;;4984063;28;20118;-76
2024/04/04 04:09:44;;;;;;;2.97;1.60;;;;;;;;;;4923549;29;20467;-76
2024/04/04 04:12:29;;;;;;;3.55;1.70;;;;;;;;;;4939637;28;20039;-76
2024/04/04 04:15:14;;;;;;;3.13;1.33;;;;;;;;;;4919416;29;20126;-74
2024/04/04 04:17:59;;;;;;;3.22;1.40;;;;;;;;;;4926177;28;20387;-76
2024/04/04 04:23:49;;;;;;;3.70;1.70;;;;;;;;;;4907534;28;20040;-76
2024/04/04 04:26:35;;;;;;;2.65;1.08;;;;;;;;;;4913560;29;20040;-76
2024/04/04 04:29:20;;;;;;;4.05;1.40;;;;;;;;;;4925222;29;20454;-76
2024/04/04 04:32:06;;;;;;;3.80;1.23;;;;;;;;;;4938575;28;20559;-77
2024/04/04 04:34:51;;;;;;;4.95;1.40;;;;;;;;;;4932580;29;20357;-77
2024/04/04 04:37:36;;;;;;;4.55;1.27;;;;;;;;;;4917868;28;20479;-77
2024/04/04 04:40:21;;;;;;;4.70;1.20;;;;;;;;;;4924148;29;20399;-76
2024/04/04 04:43:07;;;;;;;6.07;1.70;;;;;;;;;;4922735;29;20024;-76
2024/04/04 04:45:52;;;;;;;4.07;1.60;;;;;;;;;;4991489;28;20028;-77
2024/04/04 04:48:38;;;;;;;2.58;1.08;;;;;;;;;;4926085;28;20043;-77
2024/04/04 04:51:23;;;;;;;2.03;1.17;;;;;;;;;;4917989;28;20035;-78
2024/04/04 04:54:09;;;;;;;2.90;1.10;;;;;;;;;;4921207;29;20028;-77
2024/04/04 04:56:54;;;;;;;2.08;1.15;;;;;;;;;;4916183;28;20036;-76
2024/04/04 04:59:39;;;;;;;2.88;1.20;;;;;;;;;;4935160;28;20023;-76
2024/04/04 05:02:24;;;;;;;1.65;1.27;;;;;;;;;;4913952;29;20462;-77
2024/04/04 05:05:14;;;;;;;1.77;1.60;;;;;;;;;;4919588;29;20391;-77
2024/04/04 05:07:59;;;;;;;4.18;2.00;;;;;;;;;;4935961;29;20070;-76
2024/04/04 05:10:44;;;;;;;4.97;1.70;;;;;;;;;;4916391;29;20265;-78
2024/04/04 05:13:30;;;;;;;2.58;1.35;;;;;;;;;;4930851;28;20040;-76
2024/04/04 05:16:15;;;;;;;2.42;1.00;;;;;;;;;;4913748;29;20515;-76
2024/04/04 05:19:00;;;;;;;2.10;1.15;;;;;;;;;;4924474;28;20497;-78
2024/04/04 05:21:45;;;;;;;2.35;1.02;;;;;;;;;;4920717;28;20071;-79
2024/04/04 05:24:31;;;;;;;2.60;1.00;;;;;;;;;;4960337;28;20023;-75
2024/04/04 05:27:16;;;;;;;2.67;1.30;;;;;;;;;;4960865;28;20115;-76
2024/04/04 05:30:10;;;;;;;3.47;1.25;;;;;;;;;;4920586;28;20031;-77
2024/04/04 05:32:55;;;;;;;4.93;1.63;;;;;;;;;;4922020;28;20081;-76
2024/04/04 05:35:40;;;;;;;2.28;1.50;;;;;;;;;;4934038;28;20039;-77
2024/04/04 05:38:25;;;;;;;5.05;2.30;;;;;;;;;;4914371;28;20043;-78
2024/04/04 05:41:12;;;;;;;3.85;1.45;;;;;;;;;;4914961;28;20040;-77
2024/04/04 05:43:57;;;;;;;4.32;1.35;;;;;;;;;;4925124;28;20543;-81
2024/04/04 05:46:42;;;;;;;2.42;1.17;;;;;;;;;;4921154;29;20035;-83
2024/04/04 05:49:28;;;;;;;3.72;1.60;;;;;;;;;;4925243;29;20028;-84
2024/04/04 05:52:13;;;;;;;7.18;1.90;;;;;;;;;;4935909;29;20032;-85
2024/04/04 05:54:59;;;;;;;5.30;1.90;;;;;;;;;;4925681;28;20066;-83
2024/04/04 05:57:44;;;;;;;5.28;1.58;;;;;;;;;;4919424;29;20547;-81
2024/04/04 06:00:29;;;;;;;5.30;1.85;;;;;;;;;;4985908;28;20051;-85
2024/04/04 06:03:15;;;;;;;4.72;2.00;;;;;;;;;;4922422;29;20060;-81
2024/04/04 06:06:01;;;;;;;5.60;2.63;;;;;;;;;;4916745;29;20034;-82
2024/04/04 06:08:46;;;;;;;4.97;1.50;;;;;;;;;;4920347;29;20032;-79
2024/04/04 06:11:31;;;;;;;8.10;2.05;;;;;;;;;;4919548;29;20036;-78
2024/04/04 06:14:16;;;;;;;6.03;1.40;;;;;;;;;;4933750;28;20044;-79
2024/04/04 06:17:02;;;;;;;6.68;1.50;;;;;;;;;;4920191;29;20056;-79
2024/04/04 06:19:47;;;;;;;4.05;1.30;;;;;;;;;;4921945;29;20059;-79
2024/04/04 06:22:32;;;;;;;7.18;1.58;;;;;;;;;;4918014;29;20649;-82
2024/04/04 06:25:17;;;;;;;4.68;1.75;;;;;;;;;;4920819;29;20375;-80
2024/04/04 06:28:03;;;;;;;4.35;2.00;;;;;;;;;;4919251;28;20032;-76
2024/04/04 06:30:48;;;;;;;4.25;1.73;;;;;;;;;;4907610;29;20569;-78
2024/04/04 06:33:33;;;;;;;7.32;1.70;;;;;;;;;;4920533;28;20039;-78
2024/04/04 06:36:18;;;;;;;7.03;2.45;;;;;;;;;;4923265;29;20039;-75
2024/04/04 06:39:04;;;;;;;4.65;1.63;;;;;;;;;;4919516;28;20040;-75
2024/04/04 06:41:49;;;;;;;5.47;1.83;;;;;;;;;;4943118;28;20063;-76
2024/04/04 06:44:34;;;;;;;4.82;1.50;;;;;;;;;;4920053;29;20036;-78
2024/04/04 06:47:20;;;;;;;9.05;2.58;;;;;;;;;;4925235;28;20055;-76
2024/04/04 06:50:06;;;;;;;6.93;2.20;;;;;;;;;;4922322;29;20028;-77
2024/04/04 06:52:51;;;;;;;8.20;2.13;;;;;;;;;;4922349;28;20123;-76
2024/04/04 06:55:37;;;;;;;6.30;1.50;;;;;;;;;;4929983;29;20071;-78
2024/04/04 06:58:22;;;;;;;6.57;2.13;;;;;;;;;;4925160;29;20114;-78
2024/04/04 07:01:07;;;;;;;7.70;2.00;;;;;;;;;;4925907;29;20028;-77
2024/04/04 07:03:54;;;;;;;8.20;1.98;;;;;;;;;;4919870;28;20034;-78
2024/04/04 07:06:39;;;;;;;6.30;2.00;;;;;;;;;;4920891;29;20024;-78
2024/04/04 07:09:25;;;;;;;10.07;2.20;;;;;;;;;;4923267;29;20032;-78
2024/04/04 07:12:10;;;;;;;6.32;1.98;;;;;;;;;;4936070;28;20044;-76
2024/04/04 07:14:55;;;;;;;13.93;2.53;;;;;;;;;;4932528;28;20570;-77
2024/04/04 07:17:41;;;;;;;7.20;1.83;;;;;;;;;;4915961;29;20048;-78
2024/04/04 07:20:27;;;;;;;8.57;2.35;;;;;;;;;;4987592;28;20082;-76
2024/04/04 07:23:12;;;;;;;10.73;2.30;;;;;;;;;;4923262;28;20115;-77
2024/04/04 07:25:57;;;;;;;7.35;1.98;;;;;;;;;;4992615;28;20039;-78
2024/04/04 07:28:42;;;;;;;6.95;2.20;;;;;;;;;;4935924;29;20482;-76
2024/04/04 07:31:28;;;;;;;10.30;2.35;;;;;;;;;;4939899;28;20391;-76
2024/04/04 07:34:13;;;;;;;5.80;2.20;;;;;;;;;;4988891;28;20102;-76
2024/04/04 07:36:58;;;;;;;9.45;2.67;;;;;;;;;;4938064;28;20028;-77
2024/04/04 07:39:43;;;;;;;7.53;2.17;;;;;;;;;;4921630;29;20051;-77
2024/04/04 07:42:28;;;;;;;7.70;1.90;;;;;;;;;;4922868;28;20028;-81
2024/04/04 07:45:14;;;;;;;4.97;2.03;;;;;;;;;;4922453;28;20048;-81
2024/04/04 07:47:59;;;;;;;8.05;2.33;;;;;;;;;;4922466;29;20042;-80
2024/04/04 07:50:47;;;;;;;12.18;2.50;;;;;;;;;;4920426;29;20027;-75
2024/04/04 07:53:33;;;;;;;5.43;1.50;;;;;;;;;;4918501;28;20040;-76
2024/04/04 07:56:18;;;;;;;7.25;1.85;;;;;;;;;;4917780;28;20390;-77
2024/04/04 07:59:03;;;;;;;8.23;1.98;;;;;;;;;;4923110;29;20043;-75
2024/04/04 08:01:49;;;;;;;9.70;2.55;;;;;;;;;;4916195;28;20070;-76
2024/04/04 08:04:34;;;;;;;5.90;2.10;;;;;;;;;;4917301;29;20055;-76
2024/04/04 08:07:19;;;;;;;6.55;2.45;;;;;;;;;;4931647;28;20128;-76
2024/04/04 08:10:09;;;;;;;8.45;2.08;;;;;;;;;;4919779;28;20561;-77
2024/04/04 08:12:55;;;;;;;5.95;1.52;;;;;;;;;;4934943;28;20067;-75
2024/04/04 08:15:41;;;;;;;8.70;2.10;;;;;;;;;;4935041;29;20051;-76
2024/04/04 08:18:26;;;;;;;7.20;2.35;;;;;;;;;;4912250;29;20555;-75
2024/04/04 08:21:15;;;;;;;6.30;2.42;;;;;;;;;;4913641;29;20036;-75
2024/04/04 08:24:00;;;;;;;7.37;2.50;;;;;;;;;;4920288;28;20028;-76
2024/04/04 08:26:45;;;;;;;5.88;1.50;;;;;;;;;;4925573;29;20036;-76
2024/04/04 08:29:31;;;;;;;9.48;2.72;;;;;;;;;;4920886;29;20032;-76
2024/04/04 08:32:16;;;;;;;8.55;2.33;;;;;;;;;;4933756;28;20067;-75
2024/04/04 08:35:02;;;;;;;16.40;2.25;;;;;;;;;;4921750;29;20049;-75
2024/04/04 08:37:47;;;;;;;8.18;2.15;;;;;;;;;;4917473;29;20697;-76
2024/04/04 08:40:36;;;;;;;5.63;1.70;;;;;;;;;;4922435;29;20042;-76
2024/04/04 08:43:22;;;;;;;8.27;2.08;;;;;;;;;;4917635;29;20039;-75
2024/04/04 08:46:07;;;;;;;8.15;1.67;;;;;;;;;;4917088;29;20182;-75
2024/04/04 08:48:53;;;;;;;6.25;1.77;;;;;;;;;;4920768;29;20028;-75
2024/04/04 08:51:38;;;;;;;9.68;2.13;;;;;;;;;;4940712;28;20022;-75
2024/04/04 08:54:24;;;;;;;6.97;1.83;;;;;;;;;;4907469;29;20031;-75
2024/04/04 08:57:09;;;;;;;8.15;1.70;;;;;;;;;;4917060;29;20058;-75
2024/04/04 08:59:57;;;;;;;6.45;2.13;;;;;;;;;;4921532;29;20028;-75
2024/04/04 09:02:43;;;;;;;5.20;1.73;;;;;;;;;;4925109;29;20413;-74
2024/04/04 09:05:28;;;;;;;9.60;2.22;;;;;;;;;;4919566;28;20039;-75
2024/04/04 09:08:13;;;;;;;5.93;2.50;;;;;;;;;;4914317;28;20063;-75
2024/04/04 09:11:01;;;;;;;7.63;1.85;;;;;;;;;;4918735;28;20105;-76
2024/04/04 09:13:47;;;;;;;4.60;1.98;;;;;;;;;;4925957;28;20037;-75
2024/04/04 09:16:32;;;;;;;9.50;2.42;;;;;;;;;;4916154;29;20058;-75
2024/04/04 09:19:18;;;;;;;6.38;2.13;;;;;;;;;;4914144;29;20032;-76
2024/04/04 09:22:05;;;;;;;7.15;2.65;;;;;;;;;;4936493;29;20074;-78
2024/04/04 09:24:58;;;;;;;5.00;1.70;;;;;;;;;;4918810;29;20062;-78
2024/04/04 09:27:43;;;;;;;4.20;1.30;;;;;;;;;;4920009;29;20031;-78
2024/04/04 09:30:29;;;;;;;4.10;1.30;;;;;;;;;;4915997;29;20032;-77
2024/04/04 09:33:15;;;;;;;7.57;1.92;;;;;;;;;;4917330;29;20423;-77
2024/04/04 09:36:00;;;;;;;6.60;1.85;;;;;;;;;;4916633;29;20063;-77
2024/04/04 09:38:46;;;;;;;5.93;1.63;;;;;;;;;;4923516;29;20050;-77
2024/04/04 09:41:31;;;;;;;6.65;2.13;;;;;;;;;;4930121;28;20029;-75
2024/04/04 09:44:16;;;;;;;4.35;1.50;;;;;;;;;;4926285;29;20032;-76
2024/04/04 09:47:05;;;;;;;4.10;1.48;;;;;;;;;;4917677;28;20028;-75
2024/04/04 09:49:52;;;;;;;7.70;1.90;;;;;;;;;;4925287;29;20094;-77
2024/04/04 09:52:38;;;;;;;7.70;1.65;;;;;;;;;;4924387;29;20034;-75
2024/04/04 09:55:23;;;;;;;6.07;1.45;;;;;;;;;;4915319;29;20032;-76
2024/04/04 09:58:08;;;;;;;8.07;1.63;;;;;;;;;;4932732;28;20031;-75
2024/04/04 10:00:54;;;;;;;6.28;1.63;;;;;;;;;;4919696;29;20043;-76
2024/04/04 10:03:46;;;;;;;6.80;1.55;;;;;;;;;;4919429;28;20035;-75
2024/04/04 10:06:35;;;;;;;4.75;1.70;;;;;;;;;;4916676;29;20070;-77
2024/04/04 10:09:23;;;;;;;3.75;1.60;;;;;;;;;;4922606;29;20490;-80
2024/04/04 10:12:09;;;;;;;4.70;1.42;;;;;;;;;;4912073;29;20059;-79
2024/04/04 10:14:54;;;;;;;4.80;1.73;;;;;;;;;;4917819;28;20062;-76
2024/04/04 10:17:45;;;;;;;5.72;1.48;;;;;;;;;;4924363;28;20139;-79
2024/04/04 10:20:30;;;;;;;4.40;1.40;;;;;;;;;;4922895;29;20034;-78
2024/04/04 10:23:16;;;;;;;6.63;1.60;;;;;;;;;;4918166;28;20036;-78
2024/04/04 10:26:05;;;;;;;7.35;2.50;;;;;;;;;;4925026;28;20028;-76
2024/04/04 10:28:51;;;;;;;4.65;1.90;;;;;;;;;;4931224;28;20386;-78
2024/04/04 10:31:37;;;;;;;8.02;1.90;;;;;;;;;;4929549;29;20102;-77
2024/04/04 10:34:22;;;;;;;7.30;2.72;;;;;;;;;;4917284;28;20044;-77
2024/04/04 10:37:13;;;;;;;5.50;1.50;;;;;;;;;;4922099;29;20036;-76
2024/04/04 10:39:58;;;;;;;4.80;2.00;;;;;;;;;;4933414;28;20460;-76
2024/04/04 10:42:44;;;;;;;6.68;1.60;;;;;;;;;;4987772;28;20039;-78
2024/04/04 10:45:29;;;;;;;5.50;2.00;;;;;;;;;;4921678;29;20036;-78
2024/04/04 10:48:14;;;;;;;6.53;2.15;;;;;;;;;;4916117;29;20387;-78
2024/04/04 10:51:00;;;;;;;7.35;1.65;;;;;;;;;;4917819;29;20431;-77
2024/04/04 10:53:45;;;;;;;5.63;1.65;;;;;;;;;;4919536;28;20044;-77
2024/04/04 10:56:30;;;;;;;6.45;1.85;;;;;;;;;;4918862;29;20055;-77
2024/04/04 10:59:18;;;;;;;5.20;1.65;;;;;;;;;;4924028;29;20035;-77
2024/04/04 11:02:04;;;;;;;5.85;1.60;;;;;;;;;;4928845;28;20071;-77
2024/04/04 11:04:49;;;;;;;3.65;1.75;;;;;;;;;;4917318;29;20105;-76
2024/04/04 11:07:34;;;;;;;5.80;1.67;;;;;;;;;;4927727;28;20028;-76
2024/04/04 11:10:21;;;;;;;4.50;1.77;;;;;;;;;;4914466;28;20103;-75
2024/04/04 11:13:07;;;;;;;7.22;1.52;;;;;;;;;;4916270;28;20395;-76
2024/04/04 11:15:53;;;;;;;6.70;1.95;;;;;;;;;;4890369;28;1128951;-76
2024/04/04 11:18:39;;;;;;;6.38;1.60;;;;;;;;;;4913803;29;20040;-76
2024/04/04 11:21:24;;;;;;;7.68;1.75;;;;;;;;;;4921843;29;20086;-76
2024/04/04 11:24:09;;;;;;;7.05;1.52;;;;;;;;;;4924064;29;20039;-76
2024/04/04 11:26:54;;;;;;;5.65;1.90;;;;;;;;;;4917692;29;20071;-76
2024/04/04 11:29:39;;;;;;;5.50;1.80;;;;;;;;;;4926705;29;20024;-78
2024/04/04 11:32:25;;;;;;;7.47;2.50;;;;;;;;;;4925568;29;20033;-79
2024/04/04 11:35:10;;;;;;;11.05;3.08;;;;;;;;;;4926132;29;20086;-75
2024/04/04 11:37:55;;;;;;;7.45;1.60;;;;;;;;;;4920303;29;20024;-77
2024/04/04 11:40:41;;;;;;;3.78;1.60;;;;;;;;;;4922586;28;20108;-77
2024/04/04 11:43:26;;;;;;;6.55;2.00;;;;;;;;;;4924076;29;20040;-76
2024/04/04 11:46:12;;;;;;;4.10;1.40;;;;;;;;;;4921161;29;20035;-77
2024/04/04 11:48:57;;;;;;;4.30;2.10;;;;;;;;;;4934230;29;20372;-77
2024/04/04 11:51:42;;;;;;;7.32;1.98;;;;;;;;;;4921526;29;20032;-77
2024/04/04 11:54:28;;;;;;;7.88;2.30;;;;;;;;;;4921966;28;20040;-77
2024/04/04 11:57:13;;;;;;;6.55;2.08;;;;;;;;;;4922594;29;20570;-76
2024/04/04 11:59:58;;;;;;;3.97;1.33;;;;;;;;;;4922950;29;20118;-77
2024/04/04 12:02:43;;;;;;;6.63;1.50;;;;;;;;;;4919826;29;20027;-77
2024/04/04 12:05:30;;;;;;;5.30;1.65;;;;;;;;;;4916653;28;20388;-77
2024/04/04 12:08:15;;;;;;;3.65;1.20;;;;;;;;;;4922253;29;20051;-78
2024/04/04 12:11:03;;;;;;;7.28;1.83;;;;;;;;;;4988602;28;20024;-78
2024/04/04 12:13:50;;;;;;;6.90;1.80;;;;;;;;;;4937370;28;20433;-78
2024/04/04 12:16:35;;;;;;;5.78;1.52;;;;;;;;;;4917408;28;20087;-79
2024/04/04 12:19:27;;;;;;;10.13;2.33;;;;;;;;;;4929889;28;20035;-78
2024/04/04 12:22:13;;;;;;;6.93;1.63;;;;;;;;;;4984629;28;20036;-78
2024/04/04 12:24:58;;;;;;;6.28;2.28;;;;;;;;;;4922962;28;20043;-76
2024/04/04 12:27:43;;;;;;;5.35;1.80;;;;;;;;;;4917300;29;20024;-77
2024/04/04 12:30:28;;;;;;;4.85;1.45;;;;;;;;;;4923858;29;20074;-77
2024/04/04 12:33:14;;;;;;;4.13;1.50;;;;;;;;;;4923551;29;20078;-76
2024/04/04 12:35:59;;;;;;;5.25;1.80;;;;;;;;;;4925726;28;20028;-76
2024/04/04 12:38:44;;;;;;;3.40;1.27;;;;;;;;;;4919026;29;20023;-76
2024/04/04 12:41:29;;;;;;;5.80;1.42;;;;;;;;;;4933270;29;20028;-77
2024/04/04 12:44:14;;;;;;;5.38;1.52;;;;;;;;;;4924033;29;20035;-77
2024/04/04 12:47:00;;;;;;;5.22;1.60;;;;;;;;;;4925338;29;20463;-77
2024/04/04 12:49:45;;;;;;;2.80;1.20;;;;;;;;;;4916888;29;20766;-77
2024/04/04 12:52:30;;;;;;;4.30;1.08;;;;;;;;;;4915539;28;20522;-78
2024/04/04 12:55:16;;;;;;;3.75;1.02;;;;;;;;;;4920300;29;20044;-77
2024/04/04 12:58:01;;;;;;;3.63;1.15;;;;;;;;;;4929806;29;20085;-76
2024/04/04 13:00:47;;;;;;;2.28;1.13;;;;;;;;;;4987445;28;20031;-77
2024/04/04 13:03:33;;;;;;;4.18;1.20;;;;;;;;;;4903311;29;20115;-76
2024/04/04 13:06:18;;;;;;;3.40;1.27;;;;;;;;;;4923518;29;20080;-76
2024/04/04 13:09:04;;;;;;;3.38;1.15;;;;;;;;;;4920690;29;20028;-76
2024/04/04 13:11:50;;;;;;;3.67;1.70;;;;;;;;;;4917986;29;20102;-76
2024/04/04 13:14:35;;;;;;;2.90;1.58;;;;;;;;;;4928826;28;20154;-76
2024/04/04 13:17:20;;;;;;;6.22;1.08;;;;;;;;;;4921282;28;20735;-74
2024/04/04 13:20:09;;;;;;;1.10;0.90;;;;;;;;;;4926610;28;20090;-77
2024/04/04 13:22:55;;;;;;;;;;;;;;;;;;4920811;28;20039;-76
2024/04/04 13:25:40;;;;;;;1.90;1.08;;;;;;;;;;4921044;29;19911;-75
2024/04/04 13:28:25;;;;;;;1.27;0.77;;;;;;;;;;4915959;29;20024;-75
2024/04/04 13:31:10;;;;;;;1.83;0.93;;;;;;;;;;4917973;28;20028;-75
2024/04/04 13:33:55;;;;;;;3.05;1.17;;;;;;;;;;4926755;28;20027;-75
2024/04/04 13:36:40;;;;;;;4.95;1.35;;;;;;;;;;4921725;28;20032;-75
2024/04/04 13:39:26;;;;;;;3.15;0.90;;;;;;;;;;4945552;28;20059;-75
2024/04/04 13:42:11;;;;;;;4.00;1.73;;;;;;;;;;4934099;28;20070;-74
2024/04/04 13:44:56;;;;;;;3.70;1.35;;;;;;;;;;4914253;28;20044;-76
2024/04/04 13:47:42;;;;;;;4.47;1.00;;;;;;;;;;4917293;29;20027;-76
2024/04/04 13:50:27;;;;;;;2.28;1.38;;;;;;;;;;4917268;29;20064;-76
2024/04/04 13:53:12;;;;;;;2.92;1.25;;;;;;;;;;4912690;29;20226;-76
2024/04/04 13:55:58;;;;;;;4.18;1.20;;;;;;;;;;4915979;29;20031;-75
2024/04/04 13:58:43;;;;;;;2.75;1.13;;;;;;;;;;4919221;28;20071;-77
2024/04/04 14:01:35;;;;;;;2.78;1.20;;;;;;;;;;4933913;29;20084;-77
2024/04/04 14:04:20;;;;;;;2.42;0.93;;;;;;;;;;4918779;29;20029;-77
2024/04/04 14:07:05;;;;;;;2.70;1.50;;;;;;;;;;4918187;29;20457;-77
2024/04/04 14:09:50;;;;;;;3.47;1.15;;;;;;;;;;4916810;28;20035;-77
2024/04/04 14:12:35;;;;;;;3.58;1.25;;;;;;;;;;4917299;28;20055;-76
2024/04/04 14:15:21;;;;;;;1.77;1.10;;;;;;;;;;4912116;28;20046;-76
2024/04/04 14:18:06;;;;;;;4.40;1.42;;;;;;;;;;4925104;28;20406;-77
2024/04/04 14:20:52;;;;;;;5.78;1.42;;;;;;;;;;4918598;29;20027;-76
2024/04/04 14:23:37;;;;;;;6.20;1.35;;;;;;;;;;4913034;29;20055;-75
2024/04/04 14:26:22;;;;;;;5.88;1.73;;;;;;;;;;4984364;28;20040;-80
2024/04/04 14:29:08;;;;;;;1.98;1.23;;;;;;;;;;4916368;29;20023;-76
2024/04/04 14:31:55;;;;;;;3.60;1.60;;;;;;;;;;4918503;29;20039;-77
2024/04/04 14:34:41;;;;;;;3.17;1.52;;;;;;;;;;4916063;29;20053;-76
2024/04/04 14:37:26;;;;;;;5.18;1.15;;;;;;;;;;4924847;28;20904;-77
2024/04/04 14:40:11;;;;;;;6.07;1.10;;;;;;;;;;4917241;28;20043;-75
2024/04/04 14:42:56;;;;;;;2.90;1.15;;;;;;;;;;4916945;28;20401;-75
2024/04/04 14:45:49;;;;;;;2.38;1.20;;;;;;;;;;4927688;28;20039;-76
2024/04/04 14:48:34;;;;;;;2.22;1.88;;;;;;;;;;4917525;29;20527;-76
2024/04/04 14:51:20;;;;;;;3.67;1.20;;;;;;;;;;4913026;29;20360;-75
2024/04/04 14:54:06;;;;;;;3.95;1.38;;;;;;;;;;4918158;29;20040;-75
2024/04/04 14:56:52;;;;;;;3.25;1.10;;;;;;;;;;4917135;29;21702;-75
2024/04/04 14:59:37;;;;;;;4.47;1.30;;;;;;;;;;4923584;29;20458;-75
2024/04/04 15:02:22;;;;;;;3.38;1.05;;;;;;;;;;4916548;28;20394;-75
2024/04/04 15:05:08;;;;;;;2.47;1.48;;;;;;;;;;4912738;29;20035;-76
2024/04/04 15:07:53;;;;;;;3.40;1.60;;;;;;;;;;4916300;29;20092;-79
2024/04/04 15:10:38;;;;;;;2.92;1.38;;;;;;;;;;4922439;28;20036;-77
2024/04/04 15:13:23;;;;;;;5.47;1.45;;;;;;;;;;4918107;29;20043;-75
2024/04/04 15:16:09;;;;;;;3.72;2.13;;;;;;;;;;4923027;29;20406;-76
2024/04/04 15:18:54;;;;;;;4.78;1.30;;;;;;;;;;4923028;28;20105;-78
2024/04/04 15:21:40;;;;;;;2.72;1.20;;;;;;;;;;4917175;29;20028;-77
2024/04/04 15:24:25;;;;;;;3.40;1.27;;;;;;;;;;4922555;29;20070;-77
2024/04/04 15:27:10;;;;;;;4.70;1.67;;;;;;;;;;4917258;29;20111;-80
2024/04/04 15:29:55;;;;;;;5.88;1.83;;;;;;;;;;4933642;29;20040;-82
2024/04/04 15:32:40;;;;;;;2.88;1.20;;;;;;;;;;4921493;29;20081;-80
2024/04/04 15:35:26;;;;;;;2.33;1.10;;;;;;;;;;4922640;29;20044;-80
2024/04/04 15:38:11;;;;;;;3.65;1.30;;;;;;;;;;4922542;29;20047;-79
2024/04/04 15:40:56;;;;;;;5.78;1.60;;;;;;;;;;4920751;29;20046;-78
2024/04/04 15:43:41;;;;;;;2.22;1.48;;;;;;;;;;4917293;28;20387;-77
2024/04/04 15:46:27;;;;;;;3.95;1.50;;;;;;;;;;4919451;29;20034;-76
2024/04/04 15:49:14;;;;;;;2.65;0.98;;;;;;;;;;4915959;29;20032;-77
2024/04/04 15:51:59;;;;;;;3.22;1.15;;;;;;;;;;4916432;28;20450;-77
2024/04/04 15:54:44;;;;;;;4.50;1.33;;;;;;;;;;4920180;28;20160;-76
2024/04/04 15:57:29;;;;;;;3.00;1.20;;;;;;;;;;4917898;28;20410;-76
2024/04/04 16:00:15;;;;;;;2.65;1.30;;;;;;;;;;4922953;29;20059;-76
2024/04/04 16:03:00;;;;;;;4.80;1.35;;;;;;;;;;4923162;28;20036;-76
2024/04/04 16:05:46;;;;;;;2.63;1.10;;;;;;;;;;4987080;28;20046;-78
2024/04/04 16:08:31;;;;;;;1.77;0.95;;;;;;;;;;4921541;29;20036;-77
2024/04/04 16:11:17;;;;;;;3.45;1.63;;;;;;;;;;4931080;28;20483;-77
2024/04/04 16:14:02;;;;;;;3.30;1.10;;;;;;;;;;4930724;28;20070;-77
2024/04/04 16:16:47;;;;;;;3.83;1.48;;;;;;;;;;4935921;28;20426;-76
2024/04/04 16:19:32;;;;;;;2.10;1.17;;;;;;;;;;4935234;28;20282;-76
2024/04/04 16:22:18;;;;;;;3.53;1.23;;;;;;;;;;4951274;28;20378;-77
2024/04/04 16:25:03;;;;;;;4.25;1.17;;;;;;;;;;4921712;28;20115;-78
2024/04/04 16:27:48;;;;;;;5.05;1.42;;;;;;;;;;4921892;28;20032;-78
2024/04/04 16:30:33;;;;;;;6.75;1.60;;;;;;;;;;4937092;28;20035;-78
2024/04/04 16:33:19;;;;;;;4.22;1.17;;;;;;;;;;4921591;29;20028;-78
2024/04/04 16:36:05;;;;;;;2.65;1.05;;;;;;;;;;4917053;29;20071;-78